createdAt,value
2022-10-20T00:01:17.469Z,8.13
2022-10-20T00:03:45.831Z,7.77
2022-10-20T00:06:15.149Z,8.50
2022-10-20T00:08:43.785Z,7.97
2022-10-20T00:11:14.058Z,7.43
2022-10-20T00:13:42.777Z,8.17
2022-10-20T00:16:12.143Z,8.43
2022-10-20T00:18:40.739Z,8.10
2022-10-20T00:21:09.489Z,8.23
2022-10-20T00:23:37.961Z,8.17
2022-10-20T00:26:06.803Z,9.10
2022-10-20T00:28:36.507Z,8.80
2022-10-20T00:31:04.995Z,8.60
2022-10-20T00:33:33.444Z,8.97
2022-10-20T00:36:01.764Z,7.80
2022-10-20T00:38:30.321Z,8.40
2022-10-20T00:41:00.097Z,8.87
2022-10-20T00:43:32.044Z,9.03
2022-10-20T00:46:01.798Z,8.50
2022-10-20T00:48:30.346Z,8.80
2022-10-20T00:50:58.731Z,9.47
2022-10-20T00:53:28.154Z,9.23
2022-10-20T00:55:56.878Z,9.53
2022-10-20T00:58:25.280Z,8.77
2022-10-20T01:00:54.984Z,9.27
2022-10-20T01:03:26.254Z,9.77
2022-10-20T01:05:54.719Z,10.13
2022-10-20T01:08:26.154Z,9.17
2022-10-20T01:10:57.349Z,9.50
2022-10-20T01:13:27.528Z,8.73
2022-10-20T01:15:57.717Z,9.37
2022-10-20T01:18:28.661Z,9.33
2022-10-20T01:21:06.876Z,10.13
2022-10-20T01:23:56.260Z,9.47
2022-10-20T01:26:39.610Z,10.00
2022-10-20T01:29:10.745Z,10.07
2022-10-20T01:31:40.687Z,9.63
2022-10-20T01:34:11.002Z,10.53
2022-10-20T01:36:39.596Z,11.03
2022-10-20T01:39:08.520Z,10.73
2022-10-20T01:41:37.969Z,9.83
2022-10-20T01:44:07.053Z,10.27
2022-10-20T01:46:37.245Z,10.37
2022-10-20T01:49:05.920Z,10.50
2022-10-20T01:51:34.350Z,9.53
2022-10-20T01:54:02.842Z,9.93
2022-10-20T01:56:32.291Z,10.53
2022-10-20T01:59:07.875Z,10.13
2022-10-20T02:01:42.659Z,10.30
2022-10-20T02:04:11.130Z,10.80
2022-10-20T02:06:42.547Z,11.37
2022-10-20T02:09:12.853Z,10.50
2022-10-20T02:11:42.020Z,10.40
2022-10-20T02:14:11.518Z,11.13
2022-10-20T02:16:41.998Z,10.67
2022-10-20T02:19:10.680Z,10.90
2022-10-20T02:21:39.166Z,11.10
2022-10-20T02:24:08.191Z,10.80
2022-10-20T02:26:36.568Z,11.27
2022-10-20T02:29:05.541Z,11.10
2022-10-20T02:31:33.841Z,11.27
2022-10-20T02:34:03.518Z,11.77
2022-10-20T02:36:32.121Z,11.10
2022-10-20T02:39:00.601Z,11.33
2022-10-20T02:41:29.795Z,12.00
2022-10-20T02:43:58.270Z,11.63
2022-10-20T02:46:26.648Z,10.90
2022-10-20T02:48:55.291Z,11.40
2022-10-20T02:51:25.169Z,11.87
2022-10-20T02:53:54.850Z,11.83
2022-10-20T02:56:25.408Z,12.23
2022-10-20T02:58:56.101Z,11.50
2022-10-20T03:01:25.014Z,11.73
2022-10-20T03:03:58.526Z,11.83
2022-10-20T03:06:28.502Z,13.07
2022-10-20T03:08:56.865Z,12.37
2022-10-20T03:11:25.586Z,11.57
2022-10-20T03:13:53.921Z,12.03
2022-10-20T03:16:22.150Z,13.17
2022-10-20T03:18:50.554Z,12.70
2022-10-20T03:21:18.905Z,12.93
2022-10-20T03:23:48.947Z,13.07
2022-10-20T03:26:17.226Z,13.20
2022-10-20T03:28:45.613Z,13.47
2022-10-20T03:31:13.999Z,13.80
2022-10-20T03:33:42.358Z,13.27
2022-10-20T03:36:11.545Z,13.63
2022-10-20T03:38:40.141Z,12.87
2022-10-20T03:41:09.872Z,13.50
2022-10-20T03:43:38.437Z,13.60
2022-10-20T03:46:07.291Z,13.63
2022-10-20T03:48:35.708Z,13.53
2022-10-20T03:51:04.094Z,14.20
2022-10-20T03:53:32.562Z,13.90
2022-10-20T03:56:00.874Z,13.87
2022-10-20T03:58:30.595Z,14.53
2022-10-20T04:00:59.099Z,14.33
2022-10-20T04:03:27.402Z,13.93
2022-10-20T04:05:55.710Z,14.57
2022-10-20T04:08:24.113Z,13.20
2022-10-20T04:10:52.654Z,14.87
2022-10-20T04:13:21.045Z,16.00
2022-10-20T04:15:51.116Z,14.60
2022-10-20T04:18:19.546Z,14.50
2022-10-20T04:20:48.979Z,14.80
2022-10-20T04:23:17.509Z,15.17
2022-10-20T04:25:48.505Z,16.03
2022-10-20T04:28:17.189Z,15.93
2022-10-20T04:30:45.516Z,15.47
2022-10-20T04:33:15.377Z,15.13
2022-10-20T04:35:43.952Z,16.40
2022-10-20T04:38:12.419Z,15.90
2022-10-20T04:40:40.918Z,16.10
2022-10-20T04:43:09.254Z,15.67
2022-10-20T04:45:38.181Z,17.00
2022-10-20T04:48:06.854Z,15.77
2022-10-20T04:50:36.703Z,15.77
2022-10-20T04:53:05.065Z,16.43
2022-10-20T04:55:33.494Z,17.63
2022-10-20T04:58:01.943Z,17.03
2022-10-20T05:00:30.263Z,17.70
2022-10-20T05:02:58.641Z,17.37
2022-10-20T05:05:27.275Z,17.23
2022-10-20T05:07:57.062Z,17.33
2022-10-20T05:10:25.433Z,17.03
2022-10-20T05:12:53.823Z,18.37
2022-10-20T05:15:23.095Z,18.13
2022-10-20T05:17:51.682Z,17.77
2022-10-20T05:20:20.531Z,17.87
2022-10-20T05:22:48.935Z,17.83
2022-10-20T05:25:35.466Z,19.20
2022-10-20T05:28:05.085Z,18.40
2022-10-20T05:30:33.776Z,18.00
2022-10-20T05:33:02.220Z,18.43
2022-10-20T05:35:30.717Z,18.83
2022-10-20T05:37:59.205Z,19.47
2022-10-20T05:40:29.265Z,19.40
2022-10-20T05:42:58.724Z,18.47
2022-10-20T05:45:27.135Z,20.93
2022-10-20T05:47:55.705Z,20.43
2022-10-20T05:50:24.061Z,20.10
2022-10-20T05:52:52.417Z,20.07
2022-10-20T05:55:20.849Z,20.97
2022-10-20T05:57:52.081Z,19.83
2022-10-20T06:00:30.138Z,18.93
2022-10-20T06:02:58.774Z,19.77
2022-10-20T06:05:27.082Z,19.57
2022-10-20T06:07:55.690Z,19.40
2022-10-20T06:10:24.629Z,19.77
2022-10-20T06:12:54.362Z,20.53
2022-10-20T06:15:22.717Z,19.63
2022-10-20T06:17:51.254Z,20.13
2022-10-20T06:20:19.950Z,19.50
2022-10-20T06:22:48.225Z,18.30
2022-10-20T06:25:16.649Z,19.77
2022-10-20T06:27:44.972Z,19.03
2022-10-20T06:30:14.874Z,18.87
2022-10-20T06:32:43.418Z,17.93
2022-10-20T06:35:11.895Z,18.80
2022-10-20T06:37:46.088Z,19.40
2022-10-20T06:40:14.615Z,19.67
2022-10-20T06:42:43.111Z,19.60
2022-10-20T06:45:14.363Z,18.77
2022-10-20T06:47:46.719Z,19.43
2022-10-20T06:50:15.273Z,19.37
2022-10-20T06:52:43.678Z,20.10
2022-10-20T06:55:12.345Z,18.93
2022-10-20T06:57:40.674Z,19.13
2022-10-20T07:00:09.677Z,18.00
2022-10-20T07:02:40.245Z,17.47
2022-10-20T07:05:10.395Z,19.73
2022-10-20T07:07:38.699Z,17.80
2022-10-20T07:10:07.630Z,18.37
2022-10-20T07:12:36.158Z,18.67
2022-10-20T07:15:04.691Z,19.73
2022-10-20T07:17:33.143Z,18.53
2022-10-20T07:20:01.589Z,18.73
2022-10-20T07:22:33.605Z,18.83
2022-10-20T07:25:06.141Z,18.20
2022-10-20T07:27:34.444Z,18.17
2022-10-20T07:30:02.882Z,18.63
2022-10-20T07:32:31.253Z,18.87
2022-10-20T07:34:59.581Z,17.83
2022-10-20T07:37:28.082Z,18.67
2022-10-20T07:39:58.255Z,17.87
2022-10-20T07:42:26.642Z,18.73
2022-10-20T07:44:54.886Z,18.40
2022-10-20T07:47:23.243Z,18.13
2022-10-20T07:49:51.715Z,18.03
2022-10-20T07:52:20.151Z,17.93
2022-10-20T07:54:48.440Z,18.73
2022-10-20T07:57:18.258Z,18.50
2022-10-20T07:59:46.687Z,17.83
2022-10-20T08:02:16.068Z,18.40
2022-10-20T08:04:45.652Z,17.73
2022-10-20T08:07:14.117Z,18.83
2022-10-20T08:09:42.659Z,18.13
2022-10-20T08:12:11.209Z,17.77
2022-10-20T08:14:40.928Z,18.17
2022-10-20T08:17:20.655Z,18.20
2022-10-20T08:20:02.727Z,17.23
2022-10-20T08:22:31.235Z,18.07
2022-10-20T08:24:59.545Z,18.77
2022-10-20T08:27:27.975Z,18.07
2022-10-20T08:30:06.293Z,17.53
2022-10-20T08:32:46.189Z,18.00
2022-10-20T08:35:14.778Z,17.20
2022-10-20T08:37:43.106Z,18.20
2022-10-20T08:40:12.126Z,17.93
2022-10-20T08:42:42.193Z,18.17
2022-10-20T08:45:15.592Z,18.13
2022-10-20T08:47:44.054Z,16.83
2022-10-20T08:50:12.519Z,18.17
2022-10-20T08:52:41.091Z,18.17
2022-10-20T08:55:10.055Z,17.67
2022-10-20T08:57:38.639Z,17.27
2022-10-20T09:00:16.701Z,16.80
2022-10-20T09:02:45.098Z,16.83
2022-10-20T09:05:16.701Z,16.63
2022-10-20T09:07:50.013Z,18.03
2022-10-20T09:10:25.550Z,17.57
2022-10-20T09:12:55.268Z,17.73
2022-10-20T09:15:26.712Z,17.07
2022-10-20T09:17:56.553Z,17.17
2022-10-20T09:20:25.552Z,17.27
2022-10-20T09:22:53.970Z,16.90
2022-10-20T09:25:23.988Z,17.33
2022-10-20T09:27:52.806Z,17.00
2022-10-20T09:30:22.135Z,17.77
2022-10-20T09:32:52.270Z,17.23
2022-10-20T09:35:21.628Z,16.33
2022-10-20T09:37:52.704Z,16.77
2022-10-20T09:40:21.085Z,16.30
2022-10-20T09:42:51.206Z,17.87
2022-10-20T09:45:22.075Z,17.63
2022-10-20T09:47:52.698Z,17.23
2022-10-20T09:50:21.670Z,16.77
2022-10-20T09:52:49.990Z,16.73
2022-10-20T09:55:21.660Z,17.67
2022-10-20T09:57:50.086Z,15.90
2022-10-20T10:00:36.229Z,16.37
2022-10-20T10:03:22.587Z,17.03
2022-10-20T10:05:51.693Z,17.07
2022-10-20T10:08:21.130Z,17.47
2022-10-20T10:10:59.238Z,17.67
2022-10-20T10:13:27.981Z,16.57
2022-10-20T10:16:02.980Z,17.10
2022-10-20T10:18:33.388Z,17.33
2022-10-20T10:21:03.042Z,16.47
2022-10-20T10:23:31.866Z,16.93
2022-10-20T10:26:02.370Z,16.67
2022-10-20T10:28:36.138Z,17.77
2022-10-20T10:31:23.993Z,17.20
2022-10-20T10:33:54.644Z,17.03
2022-10-20T10:36:30.996Z,16.83
2022-10-20T10:38:59.661Z,18.33
2022-10-20T10:41:39.205Z,18.10
2022-10-20T10:44:09.213Z,17.47
2022-10-20T10:46:38.263Z,17.30
2022-10-20T10:49:12.888Z,17.30
2022-10-20T10:51:44.498Z,17.07
2022-10-20T10:54:16.550Z,18.77
2022-10-20T10:56:45.675Z,17.83
2022-10-20T10:59:14.632Z,17.80
2022-10-20T11:01:50.822Z,18.30
2022-10-20T11:04:36.855Z,16.97
2022-10-20T11:07:05.959Z,15.87
2022-10-20T11:09:35.223Z,17.77
2022-10-20T11:12:17.973Z,17.47
2022-10-20T11:14:47.484Z,17.53
2022-10-20T11:17:19.096Z,18.07
2022-10-20T11:19:55.041Z,17.97
2022-10-20T11:22:26.437Z,17.57
2022-10-20T11:24:56.832Z,18.17
2022-10-20T11:27:26.934Z,17.37
2022-10-20T11:29:57.668Z,19.00
2022-10-20T11:32:27.837Z,18.17
2022-10-20T11:35:03.554Z,17.67
2022-10-20T11:37:32.541Z,18.73
2022-10-20T11:40:06.123Z,17.97
2022-10-20T11:42:37.829Z,17.67
2022-10-20T11:45:07.797Z,17.03
2022-10-20T11:47:36.833Z,17.53
2022-10-20T11:50:07.957Z,17.90
2022-10-20T11:52:59.082Z,17.83
2022-10-20T11:55:34.088Z,17.07
2022-10-20T11:58:07.571Z,17.83
2022-10-20T12:00:56.385Z,17.17
2022-10-20T12:03:40.359Z,16.77
2022-10-20T12:06:23.583Z,17.47
2022-10-20T12:09:09.846Z,17.43
2022-10-20T12:11:40.904Z,17.93
2022-10-20T12:14:10.612Z,17.50
2022-10-20T12:16:58.522Z,17.97
2022-10-20T12:19:27.365Z,17.60
2022-10-20T12:21:55.939Z,18.97
2022-10-20T12:24:31.373Z,17.77
2022-10-20T12:27:18.097Z,17.73
2022-10-20T12:29:54.546Z,17.77
2022-10-20T12:32:26.408Z,19.13
2022-10-20T12:34:55.188Z,17.93
2022-10-20T12:37:27.137Z,17.30
2022-10-20T12:39:55.886Z,19.20
2022-10-20T12:42:25.401Z,16.77
2022-10-20T12:44:55.150Z,16.30
2022-10-20T12:47:25.475Z,16.03
2022-10-20T12:49:55.329Z,16.50
2022-10-20T12:52:24.197Z,16.77
2022-10-20T12:54:55.480Z,16.47
2022-10-20T12:57:30.418Z,16.70
2022-10-20T13:00:00.192Z,17.73
2022-10-20T13:02:32.442Z,16.27
2022-10-20T13:05:01.558Z,17.00
2022-10-20T13:07:48.310Z,18.03
2022-10-20T13:10:30.019Z,17.50
2022-10-20T13:13:00.494Z,17.67
2022-10-20T13:15:30.993Z,19.20
2022-10-20T13:17:59.725Z,20.47
2022-10-20T13:20:29.335Z,18.13
2022-10-20T13:22:57.752Z,19.83
2022-10-20T13:25:44.067Z,19.50
2022-10-20T13:28:20.624Z,21.20
2022-10-20T13:31:06.769Z,19.57
2022-10-20T13:34:02.457Z,20.90
2022-10-20T13:36:27.586Z,20.17
2022-10-20T13:38:56.826Z,19.80
2022-10-20T13:41:28.554Z,20.33
2022-10-20T13:43:58.829Z,20.13
2022-10-20T13:46:32.607Z,19.17
2022-10-20T13:49:15.663Z,19.33
2022-10-20T13:51:44.943Z,20.53
2022-10-20T13:54:16.509Z,21.37
2022-10-20T13:56:47.754Z,18.93
2022-10-20T13:59:24.792Z,18.73
2022-10-20T14:01:54.040Z,18.60
2022-10-20T14:04:27.454Z,19.00
2022-10-20T14:06:55.783Z,19.97
2022-10-20T14:09:24.395Z,18.37
2022-10-20T14:11:53.839Z,18.80
2022-10-20T14:14:22.593Z,18.07
2022-10-20T14:16:52.744Z,16.77
2022-10-20T14:19:22.166Z,17.20
2022-10-20T14:21:51.970Z,16.33
2022-10-20T14:24:22.676Z,16.77
2022-10-20T14:26:51.203Z,17.27
2022-10-20T14:29:19.632Z,17.37
2022-10-20T14:31:48.006Z,17.03
2022-10-20T14:34:22.982Z,17.33
2022-10-20T14:36:52.854Z,17.07
2022-10-20T14:39:41.973Z,17.63
2022-10-20T14:42:16.809Z,16.77
2022-10-20T14:44:45.473Z,15.80
2022-10-20T14:47:14.586Z,14.40
2022-10-20T14:49:43.352Z,15.13
2022-10-20T14:52:22.479Z,14.03
2022-10-20T14:54:50.897Z,13.43
2022-10-20T14:57:40.432Z,13.97
2022-10-20T15:00:28.338Z,14.57
2022-10-20T15:03:01.504Z,14.50
2022-10-20T15:05:34.112Z,14.87
2022-10-20T15:08:09.929Z,14.00
2022-10-20T15:10:38.232Z,14.00
2022-10-20T15:13:06.685Z,13.67
2022-10-20T15:15:38.543Z,13.90
2022-10-20T15:18:11.070Z,14.50
2022-10-20T15:20:39.858Z,15.70
2022-10-20T15:23:09.648Z,15.53
2022-10-20T15:25:44.642Z,15.53
2022-10-20T15:28:22.716Z,13.83
2022-10-20T15:30:51.325Z,15.00
2022-10-20T15:33:19.620Z,14.67
2022-10-20T15:35:48.542Z,15.17
2022-10-20T15:38:16.845Z,14.10
2022-10-20T15:40:46.532Z,14.53
2022-10-20T15:43:15.461Z,14.37
2022-10-20T15:45:45.107Z,14.17
2022-10-20T15:48:13.452Z,14.03
2022-10-20T15:50:41.901Z,13.57
2022-10-20T15:53:11.756Z,14.20
2022-10-20T15:55:40.379Z,12.77
2022-10-20T15:58:09.993Z,13.33
2022-10-20T16:00:38.482Z,12.17
2022-10-20T16:03:06.955Z,14.00
2022-10-20T16:05:35.528Z,12.83
2022-10-20T16:08:03.832Z,14.07
2022-10-20T16:10:32.346Z,13.33
2022-10-20T16:13:00.962Z,12.60
2022-10-20T16:15:31.253Z,13.07
2022-10-20T16:17:59.790Z,13.17
2022-10-20T16:20:28.090Z,12.57
2022-10-20T16:22:56.442Z,11.83
2022-10-20T16:25:24.737Z,11.37
2022-10-20T16:27:53.587Z,11.97
2022-10-20T16:30:22.082Z,11.37
2022-10-20T16:32:52.133Z,11.27
2022-10-20T16:35:20.691Z,10.77
2022-10-20T16:37:49.370Z,10.30
2022-10-20T16:40:17.858Z,9.23
2022-10-20T16:42:46.288Z,9.27
2022-10-20T16:45:14.642Z,8.07
2022-10-20T16:47:42.988Z,8.33
2022-10-20T16:50:12.795Z,8.70
2022-10-20T16:52:41.335Z,8.03
2022-10-20T16:55:10.121Z,7.93
2022-10-20T16:57:39.802Z,7.30
2022-10-20T17:00:09.035Z,7.47
2022-10-20T17:02:37.475Z,7.80
2022-10-20T17:05:09.143Z,7.90
2022-10-20T17:07:39.708Z,7.47
2022-10-20T17:10:08.923Z,8.53
2022-10-20T17:12:37.305Z,7.53
2022-10-20T17:15:06.014Z,7.37
2022-10-20T17:17:34.728Z,8.23
2022-10-20T17:20:03.293Z,8.40
2022-10-20T17:22:32.683Z,8.00
2022-10-20T17:25:02.601Z,8.37
2022-10-20T17:27:31.594Z,8.00
2022-10-20T17:29:59.884Z,8.73
2022-10-20T17:32:28.279Z,8.73
2022-10-20T17:34:56.830Z,8.70
2022-10-20T17:37:25.207Z,8.30
2022-10-20T17:39:53.610Z,9.00
2022-10-20T17:42:23.402Z,9.80
2022-10-20T17:44:51.808Z,9.87
2022-10-20T17:47:20.111Z,10.33
2022-10-20T17:49:48.398Z,10.40
2022-10-20T17:52:16.692Z,11.07
2022-10-20T17:54:45.188Z,10.37
2022-10-20T17:57:13.996Z,10.00
2022-10-20T17:59:52.795Z,11.47
2022-10-20T18:02:23.806Z,11.47
2022-10-20T18:04:52.340Z,11.23
2022-10-20T18:07:20.715Z,10.83
2022-10-20T18:09:49.218Z,11.07
2022-10-20T18:12:17.727Z,10.90
2022-10-20T18:14:47.672Z,11.03
2022-10-20T18:17:15.985Z,11.37
2022-10-20T18:19:44.446Z,10.60
2022-10-20T18:22:12.963Z,11.03
2022-10-20T18:24:42.881Z,11.50
2022-10-20T18:27:11.632Z,10.63
2022-10-20T18:29:40.972Z,10.80
2022-10-20T18:32:10.977Z,11.27
2022-10-20T18:34:40.232Z,10.90
2022-10-20T18:37:10.836Z,11.73
2022-10-20T18:39:40.382Z,12.57
2022-10-20T18:42:08.733Z,12.77
2022-10-20T18:44:37.161Z,13.17
2022-10-20T18:47:05.873Z,12.07
2022-10-20T18:49:36.843Z,12.37
2022-10-20T18:52:05.169Z,13.40
2022-10-20T18:54:33.838Z,13.00
2022-10-20T18:57:05.488Z,12.67
2022-10-20T18:59:34.101Z,12.67
2022-10-20T19:02:04.173Z,11.97
2022-10-20T19:04:32.477Z,13.30
2022-10-20T19:07:02.350Z,13.03
2022-10-20T19:09:30.630Z,13.77
2022-10-20T19:12:00.624Z,14.30
2022-10-20T19:14:28.996Z,13.97
2022-10-20T19:16:57.360Z,14.27
2022-10-20T19:19:32.961Z,15.17
2022-10-20T19:22:04.651Z,15.17
2022-10-20T19:24:34.760Z,16.13
2022-10-20T19:30:02.758Z,16.10
2022-10-20T19:32:31.555Z,15.83
2022-10-20T19:35:03.676Z,14.33
2022-10-20T19:37:35.034Z,14.50
2022-10-20T19:40:15.504Z,15.23
2022-10-20T19:42:45.174Z,14.87
2022-10-20T19:45:20.025Z,15.27
2022-10-20T19:47:48.715Z,15.00
2022-10-20T19:50:22.327Z,15.17
2022-10-20T19:52:56.401Z,15.43
2022-10-20T19:55:27.240Z,14.90
2022-10-20T19:57:55.667Z,16.50
2022-10-20T20:00:23.967Z,15.70
2022-10-20T20:02:52.289Z,17.63
2022-10-20T20:05:20.614Z,17.37
2022-10-20T20:07:49.050Z,17.93
2022-10-20T20:10:20.343Z,17.73
2022-10-20T20:12:48.731Z,17.77
2022-10-20T20:15:17.579Z,17.17
2022-10-20T20:17:46.400Z,15.83
2022-10-20T20:20:15.126Z,17.63
2022-10-20T20:22:43.477Z,16.77
2022-10-20T20:25:11.886Z,16.70
2022-10-20T20:27:41.631Z,17.07
2022-10-20T20:30:10.684Z,17.03
2022-10-20T20:32:41.358Z,16.10
2022-10-20T20:35:14.117Z,16.30
2022-10-20T20:37:43.001Z,16.13
2022-10-20T20:40:11.754Z,16.40
2022-10-20T20:42:40.224Z,17.23
2022-10-20T20:45:10.644Z,16.33
2022-10-20T20:47:39.538Z,17.60
2022-10-20T20:50:08.639Z,19.80
2022-10-20T20:52:37.135Z,16.90
2022-10-20T20:55:06.162Z,15.27
2022-10-20T20:57:37.891Z,15.03
2022-10-20T21:00:07.281Z,15.83
2022-10-20T21:02:37.048Z,15.90
2022-10-20T21:05:05.618Z,14.83
2022-10-20T21:07:34.418Z,17.03
2022-10-20T21:10:03.106Z,16.60
2022-10-20T21:12:34.597Z,15.30
2022-10-20T21:15:03.819Z,15.77
2022-10-20T21:17:32.672Z,16.63
2022-10-20T21:20:02.295Z,16.13
2022-10-20T21:22:30.653Z,15.33
2022-10-20T21:24:59.019Z,16.10
2022-10-20T21:27:27.390Z,16.17
2022-10-20T21:29:55.662Z,15.67
2022-10-20T21:32:24.036Z,15.63
2022-10-20T21:34:55.031Z,15.73
2022-10-20T21:37:24.992Z,14.90
2022-10-20T21:39:53.341Z,15.10
2022-10-20T21:42:21.628Z,16.30
2022-10-20T21:44:51.046Z,14.93
2022-10-20T21:47:19.352Z,14.93
2022-10-20T21:49:47.686Z,15.33
2022-10-20T21:52:19.509Z,15.47
2022-10-20T21:54:49.355Z,14.60
2022-10-20T21:57:17.877Z,14.87
2022-10-20T21:59:50.463Z,14.40
2022-10-20T22:02:19.985Z,14.57
2022-10-20T22:04:49.191Z,13.20
2022-10-20T22:07:17.852Z,14.50
2022-10-20T22:09:46.394Z,12.73
2022-10-20T22:12:16.030Z,14.50
2022-10-20T22:14:46.429Z,14.80
2022-10-20T22:17:15.531Z,15.40
2022-10-20T22:19:43.915Z,15.83
2022-10-20T22:22:12.189Z,17.20
2022-10-20T22:24:40.559Z,16.87
2022-10-20T22:27:15.593Z,14.97
2022-10-20T22:29:57.445Z,14.20
2022-10-20T22:32:26.396Z,14.37
2022-10-20T22:34:54.657Z,12.83
2022-10-20T22:37:22.962Z,13.13
2022-10-20T22:39:51.457Z,12.87
2022-10-20T22:42:22.529Z,12.90
2022-10-20T22:44:53.062Z,12.83
2022-10-20T22:47:22.999Z,14.33
2022-10-20T22:49:51.823Z,13.03
2022-10-20T22:52:21.075Z,12.67
2022-10-20T22:54:49.350Z,12.40
2022-10-20T22:57:17.988Z,13.03
2022-10-20T22:59:46.579Z,14.07
2022-10-20T23:02:14.852Z,13.27
2022-10-20T23:04:44.738Z,15.07
2022-10-20T23:07:13.554Z,13.83
2022-10-20T23:09:41.940Z,14.83
2022-10-20T23:12:10.303Z,12.97
2022-10-20T23:14:38.568Z,13.83
2022-10-20T23:17:06.875Z,14.33
2022-10-20T23:19:35.223Z,14.37
2022-10-20T23:22:04.885Z,14.10
2022-10-20T23:24:33.197Z,14.17
2022-10-20T23:27:01.567Z,13.47
2022-10-20T23:29:29.887Z,13.43
2022-10-20T23:31:58.145Z,13.37
2022-10-20T23:34:26.776Z,13.63
2022-10-20T23:36:55.108Z,13.50
2022-10-20T23:39:24.903Z,13.00
2022-10-20T23:41:53.193Z,12.80
2022-10-20T23:44:21.557Z,14.87
2022-10-20T23:46:51.912Z,13.27
2022-10-20T23:49:20.205Z,13.67
2022-10-20T23:51:48.621Z,13.33
2022-10-20T23:54:16.932Z,13.23
2022-10-20T23:56:46.595Z,12.63
2022-10-20T23:59:15.097Z,13.30
